Meteo Giornale » Osservazioni meteo Stati Uniti (USA) » Columbia
ore: 19:54 - Osservazioni Meteo Columbia
Lat. 38° 49' N Lon. 92° 13' W Alt. 271 metri s.l.m.
31 °C
Sereno
Temp. 24 Ore
21 °C
37 °C
Sud/Sud-Est
11.1 Km/h
Dew point 19 °C
Umidità 48 %
Visibilità 10 Km
Il sole sorge alle ore 06:37
Il sole tramonta alle ore 19:40
| Data e Ora | Cielo e Fenomeni | T °C | DP °C | Um. % | Pres. hPa | Vis. km | Vento km/h | |
|---|---|---|---|---|---|---|---|---|
| Oggi h: 19:54 | Sereno | 31 | 19 | 48 | 1014 | 10 | S/SE 11.1 | |
| Oggi h: 18:54 | Sereno | 32 | 21 | 52 | 1014 | 10 | S/SE 9.3 | |
| Oggi h: 17:54 | Sereno | 35 | 21 | 44 | 1014 | 10 | S 11.1 | |
| Oggi h: 16:54 | Sereno | 37 | 18 | 32 | 1015 | 10 | O/SO 11.1 | |
| Oggi h: 15:54 | Sereno | 37 | 19 | 35 | 1015 | 10 | S/SO 14.8 | |
| Oggi h: 14:54 | Sereno | 36 | 19 | 36 | 1015 | 10 | SO 22.2 | |
| Oggi h: 13:54 | Sereno | 35 | 19 | 39 | 1016 | 10 | SO 14.8 | |
| Oggi h: 12:54 | Sereno | 34 | 19 | 41 | 1016 | 10 | SO 18.5 | |
| Oggi h: 11:54 | Sereno | 33 | 19 | 43 | 1017 | 10 | SO 20.3 | |
| Oggi h: 10:54 | Sereno | 32 | 19 | 46 | 1017 | 10 | O/SO 20.3 | |
| Oggi h: 09:54 | Sereno | 29 | 19 | 54 | 1017 | 10 | SO 22.2 | |
| Oggi h: 08:54 | Sereno | 26 | 18 | 61 | 1017 | 10 | S/SO 14.8 | |
| Oggi h: 07:54 | Sereno | 23 | 17 | 68 | 1016 | 10 | S 13 | |
| Oggi h: 06:54 | Sereno | 21 | 17 | 77 | 1016 | 10 | S 11.1 | |
| Oggi h: 05:54 | Sereno | 22 | 17 | 73 | 1016 | 10 | S 7.4 | |
| Oggi h: 04:54 | Sereno | 22 | 17 | 73 | 1015 | 10 | S 13 | |
| Oggi h: 03:54 | Sereno | 22 | 17 | 73 | 1015 | 10 | S 13 | |
| Oggi h: 02:54 | Sereno | 23 | 17 | 68 | 1015 | 10 | S 13 | |
| Oggi h: 01:54 | Sereno | 24 | 17 | 64 | 1015 | 10 | S 14.8 | |
| Oggi h: 00:54 | Sereno | 24 | 18 | 69 | 1015 | 10 | S/SE 14.8 | |
| Ieri h: 23:54 | Sereno | 24 | 19 | 73 | 1015 | 10 | S/SE 13 | |
| Ieri h: 22:54 | Sereno | 25 | 19 | 69 | 1015 | 10 | S/SE 11.1 | |
| Ieri h: 21:54 | Sereno | 26 | 20 | 69 | 1014 | 10 | SE 11.1 | |
| Ieri h: 20:54 | Sereno | 27 | 21 | 69 | 1014 | 10 | SE 13 | |



